sensor_id;sensor_type;location;lat;lon;timestamp;P1;durP1;ratioP1;P2;durP2;ratioP2
10319;SDS011;5205;52.168;5.420;2024-01-06T00:00:35;9.10;;;5.28;;
10319;SDS011;5205;52.168;5.420;2024-01-06T00:05:29;8.70;;;4.82;;
10319;SDS011;5205;52.168;5.420;2024-01-06T00:10:23;8.88;;;5.03;;
10319;SDS011;5205;52.168;5.420;2024-01-06T00:12:51;8.40;;;4.65;;
10319;SDS011;5205;52.168;5.420;2024-01-06T00:17:46;6.95;;;4.15;;
10319;SDS011;5205;52.168;5.420;2024-01-06T00:20:14;8.35;;;4.25;;
10319;SDS011;5205;52.168;5.420;2024-01-06T00:22:41;9.48;;;4.65;;
10319;SDS011;5205;52.168;5.420;2024-01-06T00:25:09;8.80;;;4.53;;
10319;SDS011;5205;52.168;5.420;2024-01-06T00:27:36;7.10;;;3.55;;
10319;SDS011;5205;52.168;5.420;2024-01-06T00:32:30;7.80;;;4.32;;
10319;SDS011;5205;52.168;5.420;2024-01-06T00:37:26;8.20;;;4.38;;
10319;SDS011;5205;52.168;5.420;2024-01-06T00:39:53;8.15;;;3.95;;
10319;SDS011;5205;52.168;5.420;2024-01-06T00:44:47;7.72;;;4.32;;
10319;SDS011;5205;52.168;5.420;2024-01-06T00:47:14;10.73;;;5.38;;
10319;SDS011;5205;52.168;5.420;2024-01-06T00:49:41;10.30;;;4.82;;
10319;SDS011;5205;52.168;5.420;2024-01-06T00:54:37;9.75;;;5.63;;
10319;SDS011;5205;52.168;5.420;2024-01-06T00:57:04;8.93;;;4.80;;
10319;SDS011;5205;52.168;5.420;2024-01-06T00:59:31;8.98;;;5.05;;
10319;SDS011;5205;52.168;5.420;2024-01-06T01:04:25;8.77;;;5.28;;
10319;SDS011;5205;52.168;5.420;2024-01-06T01:09:19;10.70;;;5.63;;
10319;SDS011;5205;52.168;5.420;2024-01-06T01:14:15;9.52;;;4.90;;
10319;SDS011;5205;52.168;5.420;2024-01-06T01:16:43;9.57;;;5.20;;
10319;SDS011;5205;52.168;5.420;2024-01-06T01:21:37;7.95;;;4.72;;
10319;SDS011;5205;52.168;5.420;2024-01-06T01:26:32;11.20;;;5.40;;
10319;SDS011;5205;52.168;5.420;2024-01-06T01:31:27;14.85;;;5.10;;
10319;SDS011;5205;52.168;5.420;2024-01-06T01:33:54;9.27;;;5.78;;
10319;SDS011;5205;52.168;5.420;2024-01-06T01:36:21;12.23;;;6.50;;
10319;SDS011;5205;52.168;5.420;2024-01-06T01:41:15;11.27;;;5.53;;
10319;SDS011;5205;52.168;5.420;2024-01-06T01:46:09;10.63;;;5.05;;
10319;SDS011;5205;52.168;5.420;2024-01-06T01:48:38;10.65;;;5.32;;
10319;SDS011;5205;52.168;5.420;2024-01-06T01:51:05;8.68;;;4.97;;
10319;SDS011;5205;52.168;5.420;2024-01-06T01:53:34;11.52;;;4.97;;
10319;SDS011;5205;52.168;5.420;2024-01-06T01:58:29;9.90;;;5.28;;
10319;SDS011;5205;52.168;5.420;2024-01-06T02:00:56;11.02;;;6.18;;
10319;SDS011;5205;52.168;5.420;2024-01-06T02:05:52;9.48;;;4.45;;
10319;SDS011;5205;52.168;5.420;2024-01-06T02:08:21;12.27;;;5.55;;
10319;SDS011;5205;52.168;5.420;2024-01-06T02:10:48;8.13;;;4.60;;
10319;SDS011;5205;52.168;5.420;2024-01-06T02:13:16;7.32;;;4.78;;
10319;SDS011;5205;52.168;5.420;2024-01-06T02:18:10;6.40;;;4.18;;
10319;SDS011;5205;52.168;5.420;2024-01-06T02:23:05;8.18;;;4.00;;
10319;SDS011;5205;52.168;5.420;2024-01-06T02:25:32;12.75;;;5.80;;
10319;SDS011;5205;52.168;5.420;2024-01-06T02:28:00;7.35;;;4.53;;
10319;SDS011;5205;52.168;5.420;2024-01-06T02:32:54;8.68;;;4.88;;
10319;SDS011;5205;52.168;5.420;2024-01-06T02:37:48;7.65;;;4.30;;
10319;SDS011;5205;52.168;5.420;2024-01-06T02:42:43;10.27;;;5.53;;
10319;SDS011;5205;52.168;5.420;2024-01-06T02:45:10;11.68;;;5.68;;
10319;SDS011;5205;52.168;5.420;2024-01-06T02:50:05;11.95;;;6.50;;
10319;SDS011;5205;52.168;5.420;2024-01-06T02:52:32;12.43;;;6.63;;
10319;SDS011;5205;52.168;5.420;2024-01-06T02:57:26;13.05;;;6.28;;
10319;SDS011;5205;52.168;5.420;2024-01-06T03:02:22;12.35;;;6.13;;
10319;SDS011;5205;52.168;5.420;2024-01-06T03:04:49;13.23;;;6.75;;
10319;SDS011;5205;52.168;5.420;2024-01-06T03:09:43;12.75;;;5.82;;
10319;SDS011;5205;52.168;5.420;2024-01-06T03:14:37;12.60;;;6.20;;
10319;SDS011;5205;52.168;5.420;2024-01-06T03:19:33;9.23;;;5.05;;
10319;SDS011;5205;52.168;5.420;2024-01-06T03:22:00;9.95;;;5.57;;
10319;SDS011;5205;52.168;5.420;2024-01-06T03:24:27;10.55;;;5.35;;
10319;SDS011;5205;52.168;5.420;2024-01-06T03:26:55;9.68;;;5.20;;
10319;SDS011;5205;52.168;5.420;2024-01-06T03:29:23;13.10;;;6.47;;
10319;SDS011;5205;52.168;5.420;2024-01-06T03:34:17;11.63;;;5.47;;
10319;SDS011;5205;52.168;5.420;2024-01-06T03:36:45;10.15;;;5.18;;
10319;SDS011;5205;52.168;5.420;2024-01-06T03:39:12;9.75;;;5.20;;
10319;SDS011;5205;52.168;5.420;2024-01-06T03:44:06;10.40;;;5.55;;
10319;SDS011;5205;52.168;5.420;2024-01-06T03:46:34;9.35;;;5.60;;
10319;SDS011;5205;52.168;5.420;2024-01-06T03:49:02;9.80;;;5.40;;
10319;SDS011;5205;52.168;5.420;2024-01-06T03:53:57;9.05;;;5.50;;
10319;SDS011;5205;52.168;5.420;2024-01-06T03:56:24;11.98;;;5.63;;
10319;SDS011;5205;52.168;5.420;2024-01-06T04:01:18;9.35;;;5.25;;
10319;SDS011;5205;52.168;5.420;2024-01-06T04:03:46;15.57;;;6.20;;
10319;SDS011;5205;52.168;5.420;2024-01-06T04:06:16;10.73;;;5.53;;
10319;SDS011;5205;52.168;5.420;2024-01-06T04:08:43;8.55;;;4.78;;
10319;SDS011;5205;52.168;5.420;2024-01-06T04:11:11;11.68;;;6.43;;
10319;SDS011;5205;52.168;5.420;2024-01-06T04:13:38;10.57;;;5.93;;
10319;SDS011;5205;52.168;5.420;2024-01-06T04:18:32;8.32;;;4.78;;
10319;SDS011;5205;52.168;5.420;2024-01-06T04:20:59;12.38;;;5.30;;
10319;SDS011;5205;52.168;5.420;2024-01-06T04:23:26;6.95;;;4.20;;
10319;SDS011;5205;52.168;5.420;2024-01-06T04:28:22;7.35;;;4.25;;
10319;SDS011;5205;52.168;5.420;2024-01-06T04:30:49;10.35;;;4.55;;
10319;SDS011;5205;52.168;5.420;2024-01-06T04:33:17;8.65;;;4.18;;
10319;SDS011;5205;52.168;5.420;2024-01-06T04:35:44;8.85;;;5.13;;
10319;SDS011;5205;52.168;5.420;2024-01-06T04:38:11;12.18;;;4.88;;
10319;SDS011;5205;52.168;5.420;2024-01-06T04:40:39;8.25;;;4.45;;
10319;SDS011;5205;52.168;5.420;2024-01-06T04:45:34;8.68;;;4.55;;
10319;SDS011;5205;52.168;5.420;2024-01-06T04:48:03;8.43;;;5.07;;
10319;SDS011;5205;52.168;5.420;2024-01-06T04:50:30;8.57;;;4.95;;
10319;SDS011;5205;52.168;5.420;2024-01-06T04:52:57;7.53;;;4.47;;
10319;SDS011;5205;52.168;5.420;2024-01-06T04:55:24;8.27;;;4.63;;
10319;SDS011;5205;52.168;5.420;2024-01-06T04:57:51;10.32;;;4.10;;
10319;SDS011;5205;52.168;5.420;2024-01-06T05:00:18;8.65;;;4.53;;
10319;SDS011;5205;52.168;5.420;2024-01-06T05:02:46;6.60;;;4.18;;
10319;SDS011;5205;52.168;5.420;2024-01-06T05:05:14;6.75;;;4.55;;
10319;SDS011;5205;52.168;5.420;2024-01-06T05:07:41;10.85;;;4.28;;
10319;SDS011;5205;52.168;5.420;2024-01-06T05:10:08;7.07;;;4.45;;
10319;SDS011;5205;52.168;5.420;2024-01-06T05:12:35;8.40;;;4.90;;
10319;SDS011;5205;52.168;5.420;2024-01-06T05:15:02;8.45;;;4.68;;
10319;SDS011;5205;52.168;5.420;2024-01-06T05:17:30;8.35;;;5.03;;
10319;SDS011;5205;52.168;5.420;2024-01-06T05:19:58;9.00;;;4.93;;
10319;SDS011;5205;52.168;5.420;2024-01-06T05:22:25;8.05;;;4.60;;
10319;SDS011;5205;52.168;5.420;2024-01-06T05:24:52;8.00;;;4.65;;
10319;SDS011;5205;52.168;5.420;2024-01-06T05:27:20;8.88;;;5.25;;
10319;SDS011;5205;52.168;5.420;2024-01-06T05:29:47;8.55;;;4.60;;
10319;SDS011;5205;52.168;5.420;2024-01-06T05:32:16;8.82;;;5.43;;
10319;SDS011;5205;52.168;5.420;2024-01-06T05:34:43;9.90;;;5.22;;
10319;SDS011;5205;52.168;5.420;2024-01-06T05:37:12;10.00;;;5.38;;
10319;SDS011;5205;52.168;5.420;2024-01-06T05:39:39;7.93;;;5.20;;
10319;SDS011;5205;52.168;5.420;2024-01-06T05:42:10;12.18;;;5.53;;
10319;SDS011;5205;52.168;5.420;2024-01-06T05:44:38;12.30;;;5.63;;
10319;SDS011;5205;52.168;5.420;2024-01-06T05:47:05;9.30;;;5.28;;
10319;SDS011;5205;52.168;5.420;2024-01-06T05:49:33;9.13;;;5.15;;
10319;SDS011;5205;52.168;5.420;2024-01-06T05:52:00;9.02;;;5.28;;
10319;SDS011;5205;52.168;5.420;2024-01-06T05:54:28;12.18;;;6.60;;
10319;SDS011;5205;52.168;5.420;2024-01-06T05:56:55;13.73;;;6.03;;
10319;SDS011;5205;52.168;5.420;2024-01-06T05:59:23;10.88;;;5.57;;
10319;SDS011;5205;52.168;5.420;2024-01-06T06:01:50;11.95;;;6.47;;
10319;SDS011;5205;52.168;5.420;2024-01-06T06:04:17;11.32;;;5.57;;
10319;SDS011;5205;52.168;5.420;2024-01-06T06:06:44;11.35;;;6.00;;
10319;SDS011;5205;52.168;5.420;2024-01-06T06:09:11;9.55;;;5.57;;
10319;SDS011;5205;52.168;5.420;2024-01-06T06:14:07;10.45;;;6.28;;
10319;SDS011;5205;52.168;5.420;2024-01-06T06:16:34;13.45;;;6.20;;
10319;SDS011;5205;52.168;5.420;2024-01-06T06:19:01;8.65;;;5.15;;
10319;SDS011;5205;52.168;5.420;2024-01-06T06:21:28;12.52;;;6.03;;
10319;SDS011;5205;52.168;5.420;2024-01-06T06:23:55;9.57;;;5.78;;
10319;SDS011;5205;52.168;5.420;2024-01-06T06:26:22;12.88;;;5.43;;
10319;SDS011;5205;52.168;5.420;2024-01-06T06:28:49;12.90;;;5.93;;
10319;SDS011;5205;52.168;5.420;2024-01-06T06:31:18;11.25;;;5.63;;
10319;SDS011;5205;52.168;5.420;2024-01-06T06:33:45;11.43;;;6.22;;
10319;SDS011;5205;52.168;5.420;2024-01-06T06:38:39;11.55;;;5.50;;
10319;SDS011;5205;52.168;5.420;2024-01-06T06:41:06;10.32;;;6.38;;
10319;SDS011;5205;52.168;5.420;2024-01-06T06:43:33;11.40;;;5.32;;
10319;SDS011;5205;52.168;5.420;2024-01-06T06:46:00;9.02;;;5.05;;
10319;SDS011;5205;52.168;5.420;2024-01-06T06:48:29;10.25;;;5.53;;
10319;SDS011;5205;52.168;5.420;2024-01-06T06:50:56;10.43;;;5.97;;
10319;SDS011;5205;52.168;5.420;2024-01-06T06:53:23;11.90;;;6.00;;
10319;SDS011;5205;52.168;5.420;2024-01-06T06:55:50;13.63;;;6.32;;
10319;SDS011;5205;52.168;5.420;2024-01-06T06:58:17;11.35;;;5.78;;
10319;SDS011;5205;52.168;5.420;2024-01-06T07:00:45;11.23;;;5.20;;
10319;SDS011;5205;52.168;5.420;2024-01-06T07:03:12;9.95;;;5.43;;
10319;SDS011;5205;52.168;5.420;2024-01-06T07:05:41;9.27;;;5.28;;
10319;SDS011;5205;52.168;5.420;2024-01-06T07:08:08;10.23;;;5.20;;
10319;SDS011;5205;52.168;5.420;2024-01-06T07:10:35;9.57;;;5.07;;
10319;SDS011;5205;52.168;5.420;2024-01-06T07:13:01;7.20;;;4.57;;
10319;SDS011;5205;52.168;5.420;2024-01-06T07:15:28;7.35;;;4.40;;
10319;SDS011;5205;52.168;5.420;2024-01-06T07:20:22;7.55;;;4.80;;
10319;SDS011;5205;52.168;5.420;2024-01-06T07:22:51;8.10;;;3.53;;
10319;SDS011;5205;52.168;5.420;2024-01-06T07:25:18;8.48;;;4.45;;
10319;SDS011;5205;52.168;5.420;2024-01-06T07:27:45;8.43;;;4.55;;
10319;SDS011;5205;52.168;5.420;2024-01-06T07:30:12;8.45;;;3.83;;
10319;SDS011;5205;52.168;5.420;2024-01-06T07:32:39;8.48;;;4.38;;
10319;SDS011;5205;52.168;5.420;2024-01-06T07:35:07;8.05;;;4.10;;
10319;SDS011;5205;52.168;5.420;2024-01-06T07:37:34;9.18;;;4.18;;
10319;SDS011;5205;52.168;5.420;2024-01-06T07:40:03;5.72;;;3.58;;
10319;SDS011;5205;52.168;5.420;2024-01-06T07:42:30;5.65;;;3.30;;
10319;SDS011;5205;52.168;5.420;2024-01-06T07:44:57;6.15;;;3.55;;
10319;SDS011;5205;52.168;5.420;2024-01-06T07:47:24;7.28;;;4.03;;
10319;SDS011;5205;52.168;5.420;2024-01-06T07:49:51;8.15;;;3.50;;
10319;SDS011;5205;52.168;5.420;2024-01-06T07:52:19;8.50;;;3.65;;
10319;SDS011;5205;52.168;5.420;2024-01-06T07:57:15;7.05;;;3.90;;
10319;SDS011;5205;52.168;5.420;2024-01-06T07:59:42;7.57;;;3.85;;
10319;SDS011;5205;52.168;5.420;2024-01-06T08:02:09;9.30;;;4.35;;
10319;SDS011;5205;52.168;5.420;2024-01-06T08:04:36;8.38;;;4.32;;
10319;SDS011;5205;52.168;5.420;2024-01-06T08:07:03;6.90;;;4.30;;
10319;SDS011;5205;52.168;5.420;2024-01-06T08:11:57;9.13;;;3.95;;
10319;SDS011;5205;52.168;5.420;2024-01-06T08:14:26;8.65;;;3.90;;
10319;SDS011;5205;52.168;5.420;2024-01-06T08:16:53;11.55;;;4.55;;
10319;SDS011;5205;52.168;5.420;2024-01-06T08:19:20;6.85;;;4.35;;
10319;SDS011;5205;52.168;5.420;2024-01-06T08:21:47;9.80;;;4.55;;
10319;SDS011;5205;52.168;5.420;2024-01-06T08:26:42;8.90;;;3.72;;
10319;SDS011;5205;52.168;5.420;2024-01-06T08:29:10;9.70;;;4.00;;
10319;SDS011;5205;52.168;5.420;2024-01-06T08:31:38;11.57;;;4.43;;
10319;SDS011;5205;52.168;5.420;2024-01-06T08:34:05;10.02;;;4.28;;
10319;SDS011;5205;52.168;5.420;2024-01-06T08:36:33;8.23;;;4.45;;
10319;SDS011;5205;52.168;5.420;2024-01-06T08:39:00;8.18;;;4.45;;
10319;SDS011;5205;52.168;5.420;2024-01-06T08:41:27;9.40;;;4.93;;
10319;SDS011;5205;52.168;5.420;2024-01-06T08:43:54;8.88;;;5.15;;
10319;SDS011;5205;52.168;5.420;2024-01-06T08:46:21;11.95;;;5.60;;
10319;SDS011;5205;52.168;5.420;2024-01-06T08:48:49;11.35;;;4.95;;
10319;SDS011;5205;52.168;5.420;2024-01-06T08:51:17;11.57;;;4.93;;
10319;SDS011;5205;52.168;5.420;2024-01-06T08:53:45;7.47;;;4.00;;
10319;SDS011;5205;52.168;5.420;2024-01-06T08:56:12;8.68;;;4.97;;
10319;SDS011;5205;52.168;5.420;2024-01-06T08:58:41;9.40;;;4.93;;
10319;SDS011;5205;52.168;5.420;2024-01-06T09:01:08;11.93;;;5.72;;
10319;SDS011;5205;52.168;5.420;2024-01-06T09:03:35;9.63;;;4.43;;
10319;SDS011;5205;52.168;5.420;2024-01-06T09:06:04;8.90;;;4.60;;
10319;SDS011;5205;52.168;5.420;2024-01-06T09:08:31;9.55;;;4.93;;
10319;SDS011;5205;52.168;5.420;2024-01-06T09:10:58;7.70;;;4.55;;
10319;SDS011;5205;52.168;5.420;2024-01-06T09:13:25;7.90;;;4.45;;
10319;SDS011;5205;52.168;5.420;2024-01-06T09:15:52;8.30;;;4.35;;
10319;SDS011;5205;52.168;5.420;2024-01-06T09:18:20;10.32;;;5.05;;
10319;SDS011;5205;52.168;5.420;2024-01-06T09:20:47;9.60;;;4.90;;
10319;SDS011;5205;52.168;5.420;2024-01-06T09:23:16;10.40;;;4.63;;
10319;SDS011;5205;52.168;5.420;2024-01-06T09:25:43;11.95;;;4.28;;
10319;SDS011;5205;52.168;5.420;2024-01-06T09:28:10;8.50;;;4.75;;
10319;SDS011;5205;52.168;5.420;2024-01-06T09:30:37;8.27;;;4.28;;
10319;SDS011;5205;52.168;5.420;2024-01-06T09:33:04;9.85;;;4.15;;
10319;SDS011;5205;52.168;5.420;2024-01-06T09:35:33;7.65;;;4.72;;
10319;SDS011;5205;52.168;5.420;2024-01-06T09:38:00;8.98;;;4.28;;
10319;SDS011;5205;52.168;5.420;2024-01-06T09:40:28;7.47;;;4.43;;
10319;SDS011;5205;52.168;5.420;2024-01-06T09:42:58;9.60;;;3.92;;
10319;SDS011;5205;52.168;5.420;2024-01-06T09:45:25;7.88;;;3.47;;
10319;SDS011;5205;52.168;5.420;2024-01-06T09:50:20;8.93;;;4.30;;
10319;SDS011;5205;52.168;5.420;2024-01-06T09:52:48;12.10;;;4.07;;
10319;SDS011;5205;52.168;5.420;2024-01-06T09:55:20;6.05;;;3.80;;
10319;SDS011;5205;52.168;5.420;2024-01-06T09:57:51;6.30;;;3.60;;
10319;SDS011;5205;52.168;5.420;2024-01-06T10:00:18;6.32;;;3.88;;
10319;SDS011;5205;52.168;5.420;2024-01-06T10:02:46;9.88;;;5.20;;
10319;SDS011;5205;52.168;5.420;2024-01-06T10:05:13;7.70;;;3.45;;
10319;SDS011;5205;52.168;5.420;2024-01-06T10:07:41;8.43;;;4.28;;
10319;SDS011;5205;52.168;5.420;2024-01-06T10:10:08;7.82;;;4.35;;
10319;SDS011;5205;52.168;5.420;2024-01-06T10:12:36;5.65;;;3.50;;
10319;SDS011;5205;52.168;5.420;2024-01-06T10:15:06;5.88;;;3.90;;
10319;SDS011;5205;52.168;5.420;2024-01-06T10:17:35;7.95;;;4.10;;
10319;SDS011;5205;52.168;5.420;2024-01-06T10:20:05;9.68;;;4.13;;
10319;SDS011;5205;52.168;5.420;2024-01-06T10:22:33;6.15;;;4.00;;
10319;SDS011;5205;52.168;5.420;2024-01-06T10:25:02;5.97;;;3.45;;
10319;SDS011;5205;52.168;5.420;2024-01-06T10:27:29;6.75;;;4.10;;
10319;SDS011;5205;52.168;5.420;2024-01-06T10:29:56;12.45;;;4.60;;
10319;SDS011;5205;52.168;5.420;2024-01-06T10:32:24;6.35;;;4.22;;
10319;SDS011;5205;52.168;5.420;2024-01-06T10:34:54;9.02;;;4.30;;
10319;SDS011;5205;52.168;5.420;2024-01-06T10:39:48;6.63;;;3.92;;
10319;SDS011;5205;52.168;5.420;2024-01-06T10:42:15;7.25;;;3.70;;
10319;SDS011;5205;52.168;5.420;2024-01-06T10:44:42;7.72;;;4.18;;
10319;SDS011;5205;52.168;5.420;2024-01-06T10:47:11;12.07;;;4.40;;
10319;SDS011;5205;52.168;5.420;2024-01-06T10:49:40;10.60;;;4.75;;
10319;SDS011;5205;52.168;5.420;2024-01-06T10:52:08;7.80;;;4.40;;
10319;SDS011;5205;52.168;5.420;2024-01-06T10:54:35;7.35;;;4.22;;
10319;SDS011;5205;52.168;5.420;2024-01-06T10:57:03;6.38;;;3.75;;
10319;SDS011;5205;52.168;5.420;2024-01-06T10:59:30;7.43;;;3.72;;
10319;SDS011;5205;52.168;5.420;2024-01-06T11:01:59;10.18;;;4.70;;
10319;SDS011;5205;52.168;5.420;2024-01-06T11:04:27;10.10;;;4.32;;
10319;SDS011;5205;52.168;5.420;2024-01-06T11:06:56;8.23;;;4.53;;
10319;SDS011;5205;52.168;5.420;2024-01-06T11:09:24;9.20;;;4.65;;
10319;SDS011;5205;52.168;5.420;2024-01-06T11:11:56;6.95;;;4.50;;
10319;SDS011;5205;52.168;5.420;2024-01-06T11:16:50;8.65;;;4.60;;
10319;SDS011;5205;52.168;5.420;2024-01-06T11:24:48;10.43;;;4.65;;
10319;SDS011;5205;52.168;5.420;2024-01-06T11:27:18;7.40;;;4.28;;
10319;SDS011;5205;52.168;5.420;2024-01-06T11:29:46;7.82;;;4.10;;
10319;SDS011;5205;52.168;5.420;2024-01-06T11:32:20;6.82;;;4.05;;
10319;SDS011;5205;52.168;5.420;2024-01-06T11:34:48;7.63;;;4.05;;
10319;SDS011;5205;52.168;5.420;2024-01-06T11:37:17;7.18;;;4.07;;
10319;SDS011;5205;52.168;5.420;2024-01-06T11:39:44;6.88;;;4.15;;
10319;SDS011;5205;52.168;5.420;2024-01-06T11:42:13;8.23;;;4.22;;
10319;SDS011;5205;52.168;5.420;2024-01-06T11:44:42;7.75;;;4.32;;
10319;SDS011;5205;52.168;5.420;2024-01-06T11:47:11;6.30;;;3.75;;
10319;SDS011;5205;52.168;5.420;2024-01-06T11:49:39;6.68;;;4.00;;
10319;SDS011;5205;52.168;5.420;2024-01-06T11:52:09;7.93;;;4.25;;
10319;SDS011;5205;52.168;5.420;2024-01-06T11:54:36;8.35;;;3.72;;
10319;SDS011;5205;52.168;5.420;2024-01-06T11:59:32;5.82;;;3.35;;
10319;SDS011;5205;52.168;5.420;2024-01-06T12:01:59;5.40;;;3.60;;
10319;SDS011;5205;52.168;5.420;2024-01-06T12:04:26;8.25;;;3.50;;
10319;SDS011;5205;52.168;5.420;2024-01-06T12:07:04;11.52;;;4.18;;
10319;SDS011;5205;52.168;5.420;2024-01-06T12:09:31;6.25;;;3.53;;
10319;SDS011;5205;52.168;5.420;2024-01-06T12:14:25;9.75;;;4.57;;
10319;SDS011;5205;52.168;5.420;2024-01-06T12:16:53;8.43;;;4.25;;
10319;SDS011;5205;52.168;5.420;2024-01-06T12:19:25;7.57;;;4.57;;
10319;SDS011;5205;52.168;5.420;2024-01-06T12:21:52;8.30;;;4.57;;
10319;SDS011;5205;52.168;5.420;2024-01-06T12:24:20;8.10;;;4.50;;
10319;SDS011;5205;52.168;5.420;2024-01-06T12:26:47;7.13;;;3.97;;
10319;SDS011;5205;52.168;5.420;2024-01-06T12:29:16;7.93;;;4.70;;
10319;SDS011;5205;52.168;5.420;2024-01-06T12:31:44;9.15;;;3.92;;
10319;SDS011;5205;52.168;5.420;2024-01-06T12:34:12;8.48;;;4.88;;
10319;SDS011;5205;52.168;5.420;2024-01-06T12:36:39;6.35;;;4.40;;
10319;SDS011;5205;52.168;5.420;2024-01-06T12:39:10;5.63;;;3.95;;
10319;SDS011;5205;52.168;5.420;2024-01-06T12:41:38;7.85;;;3.95;;
10319;SDS011;5205;52.168;5.420;2024-01-06T12:44:04;7.03;;;4.30;;
10319;SDS011;5205;52.168;5.420;2024-01-06T12:46:32;7.80;;;3.78;;
10319;SDS011;5205;52.168;5.420;2024-01-06T12:48:59;9.25;;;4.22;;
10319;SDS011;5205;52.168;5.420;2024-01-06T12:51:27;6.93;;;3.72;;
10319;SDS011;5205;52.168;5.420;2024-01-06T12:53:54;7.60;;;4.13;;
10319;SDS011;5205;52.168;5.420;2024-01-06T12:56:21;9.63;;;4.30;;
10319;SDS011;5205;52.168;5.420;2024-01-06T12:58:49;8.50;;;4.50;;
10319;SDS011;5205;52.168;5.420;2024-01-06T13:01:16;10.55;;;5.13;;
10319;SDS011;5205;52.168;5.420;2024-01-06T13:03:43;10.38;;;4.45;;
10319;SDS011;5205;52.168;5.420;2024-01-06T13:08:39;7.85;;;4.05;;
10319;SDS011;5205;52.168;5.420;2024-01-06T13:11:06;8.80;;;4.75;;
10319;SDS011;5205;52.168;5.420;2024-01-06T13:13:33;9.25;;;4.45;;
10319;SDS011;5205;52.168;5.420;2024-01-06T13:16:00;5.45;;;3.75;;
10319;SDS011;5205;52.168;5.420;2024-01-06T13:18:30;6.63;;;4.28;;
10319;SDS011;5205;52.168;5.420;2024-01-06T13:20:57;8.93;;;4.57;;
10319;SDS011;5205;52.168;5.420;2024-01-06T13:25:52;12.30;;;4.57;;
10319;SDS011;5205;52.168;5.420;2024-01-06T13:28:20;11.10;;;4.38;;
10319;SDS011;5205;52.168;5.420;2024-01-06T13:30:49;8.73;;;4.88;;
10319;SDS011;5205;52.168;5.420;2024-01-06T13:33:16;12.07;;;5.93;;
10319;SDS011;5205;52.168;5.420;2024-01-06T13:35:43;12.77;;;4.70;;
10319;SDS011;5205;52.168;5.420;2024-01-06T13:38:10;14.68;;;4.93;;
10319;SDS011;5205;52.168;5.420;2024-01-06T13:40:38;9.38;;;5.05;;
10319;SDS011;5205;52.168;5.420;2024-01-06T13:43:06;10.15;;;5.15;;
10319;SDS011;5205;52.168;5.420;2024-01-06T13:45:40;10.15;;;4.90;;
10319;SDS011;5205;52.168;5.420;2024-01-06T13:48:07;10.85;;;5.25;;
10319;SDS011;5205;52.168;5.420;2024-01-06T13:50:34;11.10;;;5.88;;
10319;SDS011;5205;52.168;5.420;2024-01-06T13:53:01;9.65;;;4.68;;
10319;SDS011;5205;52.168;5.420;2024-01-06T13:55:28;10.88;;;5.80;;
10319;SDS011;5205;52.168;5.420;2024-01-06T14:00:25;10.70;;;5.38;;
10319;SDS011;5205;52.168;5.420;2024-01-06T14:02:52;8.98;;;5.43;;
10319;SDS011;5205;52.168;5.420;2024-01-06T14:05:20;11.35;;;5.78;;
10319;SDS011;5205;52.168;5.420;2024-01-06T14:07:47;10.50;;;5.82;;
10319;SDS011;5205;52.168;5.420;2024-01-06T14:10:15;10.05;;;5.28;;
10319;SDS011;5205;52.168;5.420;2024-01-06T14:12:42;10.23;;;4.75;;
10319;SDS011;5205;52.168;5.420;2024-01-06T14:15:09;10.88;;;5.13;;
10319;SDS011;5205;52.168;5.420;2024-01-06T14:17:38;11.23;;;5.25;;
10319;SDS011;5205;52.168;5.420;2024-01-06T14:20:07;9.75;;;5.53;;
10319;SDS011;5205;52.168;5.420;2024-01-06T14:22:37;17.35;;;8.10;;
10319;SDS011;5205;52.168;5.420;2024-01-06T14:25:05;9.30;;;4.57;;
10319;SDS011;5205;52.168;5.420;2024-01-06T14:29:59;7.53;;;4.38;;
10319;SDS011;5205;52.168;5.420;2024-01-06T14:32:26;10.07;;;4.22;;
10319;SDS011;5205;52.168;5.420;2024-01-06T14:34:55;8.70;;;4.18;;
10319;SDS011;5205;52.168;5.420;2024-01-06T14:37:22;7.95;;;4.63;;
10319;SDS011;5205;52.168;5.420;2024-01-06T14:39:49;12.15;;;4.65;;
10319;SDS011;5205;52.168;5.420;2024-01-06T14:42:17;7.95;;;4.10;;
10319;SDS011;5205;52.168;5.420;2024-01-06T14:44:45;7.43;;;4.10;;
10319;SDS011;5205;52.168;5.420;2024-01-06T14:47:12;8.70;;;4.03;;
10319;SDS011;5205;52.168;5.420;2024-01-06T14:49:39;7.90;;;3.85;;
10319;SDS011;5205;52.168;5.420;2024-01-06T14:52:07;9.05;;;4.25;;
10319;SDS011;5205;52.168;5.420;2024-01-06T14:54:35;7.50;;;3.80;;
10319;SDS011;5205;52.168;5.420;2024-01-06T14:57:02;6.50;;;4.00;;
10319;SDS011;5205;52.168;5.420;2024-01-06T14:59:29;10.13;;;4.75;;
10319;SDS011;5205;52.168;5.420;2024-01-06T15:01:57;6.55;;;3.95;;
10319;SDS011;5205;52.168;5.420;2024-01-06T15:04:24;8.95;;;4.07;;
10319;SDS011;5205;52.168;5.420;2024-01-06T15:06:51;8.18;;;4.85;;
10319;SDS011;5205;52.168;5.420;2024-01-06T15:09:19;6.85;;;3.70;;
10319;SDS011;5205;52.168;5.420;2024-01-06T15:11:49;6.00;;;3.72;;
10319;SDS011;5205;52.168;5.420;2024-01-06T15:14:16;9.63;;;5.25;;
10319;SDS011;5205;52.168;5.420;2024-01-06T15:16:43;10.25;;;4.65;;
10319;SDS011;5205;52.168;5.420;2024-01-06T15:19:10;5.65;;;3.33;;
10319;SDS011;5205;52.168;5.420;2024-01-06T15:24:04;23.67;;;11.15;;
10319;SDS011;5205;52.168;5.420;2024-01-06T15:26:33;13.38;;;7.40;;
10319;SDS011;5205;52.168;5.420;2024-01-06T15:29:00;14.55;;;7.97;;
10319;SDS011;5205;52.168;5.420;2024-01-06T15:31:29;17.98;;;10.68;;
10319;SDS011;5205;52.168;5.420;2024-01-06T15:33:56;10.23;;;5.85;;
10319;SDS011;5205;52.168;5.420;2024-01-06T15:36:23;6.20;;;4.53;;
10319;SDS011;5205;52.168;5.420;2024-01-06T15:38:50;7.15;;;4.15;;
10319;SDS011;5205;52.168;5.420;2024-01-06T15:41:17;7.10;;;4.18;;
10319;SDS011;5205;52.168;5.420;2024-01-06T15:43:46;7.22;;;4.25;;
10319;SDS011;5205;52.168;5.420;2024-01-06T15:46:13;9.10;;;4.00;;
10319;SDS011;5205;52.168;5.420;2024-01-06T15:48:40;7.57;;;3.63;;
10319;SDS011;5205;52.168;5.420;2024-01-06T15:51:08;6.90;;;4.03;;
10319;SDS011;5205;52.168;5.420;2024-01-06T15:53:36;5.72;;;3.78;;
10319;SDS011;5205;52.168;5.420;2024-01-06T15:56:03;8.73;;;4.60;;
10319;SDS011;5205;52.168;5.420;2024-01-06T16:00:58;8.00;;;4.00;;
10319;SDS011;5205;52.168;5.420;2024-01-06T16:03:26;6.88;;;4.25;;
10319;SDS011;5205;52.168;5.420;2024-01-06T16:05:53;7.15;;;3.60;;
10319;SDS011;5205;52.168;5.420;2024-01-06T16:08:20;6.93;;;4.25;;
10319;SDS011;5205;52.168;5.420;2024-01-06T16:10:47;9.02;;;4.95;;
10319;SDS011;5205;52.168;5.420;2024-01-06T16:15:43;10.07;;;4.25;;
10319;SDS011;5205;52.168;5.420;2024-01-06T16:18:13;8.18;;;4.53;;
10319;SDS011;5205;52.168;5.420;2024-01-06T16:20:40;6.53;;;4.00;;
10319;SDS011;5205;52.168;5.420;2024-01-06T16:25:38;9.60;;;5.15;;
10319;SDS011;5205;52.168;5.420;2024-01-06T16:28:05;8.02;;;4.43;;
10319;SDS011;5205;52.168;5.420;2024-01-06T16:30:36;9.15;;;5.35;;
10319;SDS011;5205;52.168;5.420;2024-01-06T16:33:03;10.32;;;5.97;;
10319;SDS011;5205;52.168;5.420;2024-01-06T16:35:33;11.05;;;5.43;;
10319;SDS011;5205;52.168;5.420;2024-01-06T16:38:00;11.13;;;5.45;;
10319;SDS011;5205;52.168;5.420;2024-01-06T16:40:27;9.52;;;4.78;;
10319;SDS011;5205;52.168;5.420;2024-01-06T16:42:54;10.57;;;5.40;;
10319;SDS011;5205;52.168;5.420;2024-01-06T16:45:21;8.93;;;5.05;;
10319;SDS011;5205;52.168;5.420;2024-01-06T16:47:48;8.63;;;5.10;;
10319;SDS011;5205;52.168;5.420;2024-01-06T16:50:15;8.75;;;5.18;;
10319;SDS011;5205;52.168;5.420;2024-01-06T16:52:44;9.98;;;5.25;;
10319;SDS011;5205;52.168;5.420;2024-01-06T16:55:11;9.68;;;5.80;;
10319;SDS011;5205;52.168;5.420;2024-01-06T16:57:38;9.07;;;5.55;;
10319;SDS011;5205;52.168;5.420;2024-01-06T17:00:06;8.95;;;4.97;;
10319;SDS011;5205;52.168;5.420;2024-01-06T17:02:34;7.15;;;4.80;;
10319;SDS011;5205;52.168;5.420;2024-01-06T17:05:03;10.30;;;5.93;;
10319;SDS011;5205;52.168;5.420;2024-01-06T17:07:33;8.93;;;5.82;;
10319;SDS011;5205;52.168;5.420;2024-01-06T17:10:02;11.50;;;6.65;;
10319;SDS011;5205;52.168;5.420;2024-01-06T17:12:29;12.07;;;6.05;;
10319;SDS011;5205;52.168;5.420;2024-01-06T17:14:59;9.35;;;5.78;;
10319;SDS011;5205;52.168;5.420;2024-01-06T17:17:26;10.93;;;6.57;;